MMMA 090140Z 07006KT 7SM BKN010 23/20 A2995 RMK 8/500 HZY= 090142

MMMA 090040Z 07007KT 7SM BKN010 23/20 A2995 RMK 8/500 HZY= 090041

MMMA 082344Z 07005KT 7SM OVC018 23/20 A2994 RMK SLP137 54000 901 8/5// HZY= 082345

MMMA 082240Z 07009KT 7SM OVC020 24/21 A2992 RMK 8/5// HZY= 082240

MMMA 082140Z 07010KT 7SM OVC018 24/21 A2993 RMK 8/5// HZY= 082140

MMMA 082041Z 07010KT 7SM OVC020 26/23 A2994 RMK SLP137 57029 958 8/5// HZY BINOVC= 082042

MMMA 081940Z 07008KT 7SM OVC020 25/22 A2995 RMK 8/5// HZY= 081941

MMMA 081840Z 05006KT 7SM OVC020 26/23 A2998 RMK 8/5// HZY BINOVC= 081841

MMMA 081743Z 04005KT 7SM OVC020 25/20 A3002 RMK SLP166 57002 968 8/5// HZY BINOVC= 081744

MMMA 081640Z 05004KT 7SM OVC023 24/21 A3004 RMK 8/5// HZY BINOVC= 081641

MMMA 081540Z 04004KT 7SM BKN020 22/20 A3004 RMK 8/500 HZY= 081540

MMMA 081448Z 01004KT 6SM SCT020 23/20 A3003 RMK SLP168 5//// 973 8/500 HZY= 081450

MMMA 081359Z RTD 01004KT 6SM SCT200 20/18 A2996 RMK 8/001 HZY RTS= 081359

MMMA 080140Z 00000KT 7SM BKN020 18/16 A2997 RMK 8/500 HZY= 080141

MMMA 080043Z 06002KT 7SM BKN020 18/16 A2995 RMK 8/500 HZY= 080044

MMMA 072343Z 06004KT 7SM OVC018 19/15 A2993 RMK SLP136 57009 959 8/5// FU 1 QUAD= 072344

MMMA 072240Z 08004KT 7SM OVC018 20/18 A2993 RMK 8/5//= 072241

MMMA 072140Z 08004KT 7SM OVC018 20/18 A2994 RMK 8/5//= 072141

MMMA 072046Z 05003KT 7SM OVC018 21/18 A2996 RMK SLP145 57039 908 8/5//= 072047

MMMA 071942Z 02003KT 7SM OVC018 21/18 A2998 RMK 8/5// FU 1 QUAD= 071943

MMMA 071844Z 35003KT 7SM OVC018 20/15 A3002 RMK 8/5// FU 1 QUAD= 071845

MMMA 071741Z 34008KT 7SM OVC018 18/16 A3007 RMK SLP184 57007 930 8/5//= 071742

MMMA 071640Z 36007KT 7SM OVC020 18/16 A3009 RMK 8/5//= 071641

MMMA 071542Z 34007KT 8SM OVC020 17/12 A3010 RMK 8/5//= 071543

MMMA 071445Z 34006KT 8SM OVC020 17/12 A3009 RMK SLP191 5//// 990 8/5// FU 1 QUAD= 071446

MMMA 071408Z RTD 33010KT 8SM OVC020 28/13 A3009 RMK 8/5// RTS= 071409

MMMA 070146Z 12004KT 7SM BKN020 25/24 A3001 RMK 8/100 HZY DSNT TCU W= 070147

MMMA 070042Z 14006KT 7SM BKN020 25/24 A2999 RMK 8/100 HZY ISOL CI= 070043

MMMA 062342Z 14006KT 8SM SCT025 BKN200 27/24 A2996 RMK SLP145 52008 929 8/108= 062343

MMMA 062245Z 16006KT 8SM SCT025TCU BKN200 28/24 A2995 RMK 8/208= 062246

MMMA 062141Z 15008KT 8SM SCT025TCU BKN200 28/24 A2993 RMK 8/208= 062142

MMMA 062041Z 16007KT 8SM BKN025TCU 29/23 A2994 RMK SLP136 57017 921 8/200 ISOL CI= 062042

MMMA 061942Z 16011KT 8SM BKN025 BKN200 29/23 A2993 RMK 8/108= 061943

MMMA 061840Z 18015KT 8SM SCT025 BKN200 30/27 A2996 RMK 8/108= 061841

COR MMMA 061740Z 17014KT 7SM SCT025TCU BKN200 29/26 A2999 RMK SLP153 52007 905 8/201 HZY= 061742

MMMA 061740Z 17014KT 7SM SCT025TCU BKN200 29/26 A2999 RMK SLP153 52007 995 8/201 HZY= 061741

MMMA 061643Z 19012KT 7SM BKN025CB OVC200 28/25 A3000 RMK 8/302 HZY DSNT RA N SE= 061644

MMMA 061547Z 17011KT 7SM BKN020CB OVC200 27/25 A2998 RMK 8/302 HZY= 061548

MMMA 061440Z 15004KT 7SM SCT020CB BKN200 25/25 A2996 RMK SLP147 5//// 963 8/302 HZY= 061441

MMMA 061340Z 15005KT 6SM BKN200 24/24 A2994 RMK 8/002 HZY= 061341

MMMA 061301Z RTD 15006KT 6SM SCT020CB BKN200 24/24 A2993 RMK 8/308 HZY RTS= 061302